Time;durP1;ratioP1;P1;durP2;ratioP2;P2;SDS_P1;SDS_P2;PMS_P1;PMS_P2;Temp;Humidity;BMP_temperature;BMP_pressure;BME280_temperature;BME280_humidity;BME280_pressure;Samples;Min_cycle;Max_cycle;Signal;HPM_P1;HPM_P2
2022/06/07 00:00:13;;;;;;;0.30;0.30;;;22.30;49.90;21.50;100876.00;;;;5035330;28;20486;-71
2022/06/07 00:02:59;;;;;;;0.80;0.30;;;22.30;49.90;21.50;100880.00;;;;5059289;28;20040;-70
2022/06/07 00:05:46;;;;;;;1.75;0.30;;;22.30;49.90;21.50;100871.00;;;;5050880;28;20443;-70
2022/06/07 00:08:32;;;;;;;0.45;0.30;;;22.30;50.00;21.50;100872.00;;;;5044160;28;20048;-70
2022/06/07 00:11:19;;;;;;;0.90;0.50;;;22.30;49.90;21.50;100878.00;;;;5052066;28;20029;-70
2022/06/07 00:14:05;;;;;;;4.30;0.60;;;22.30;50.00;21.50;100874.00;;;;5043825;28;20066;-70
2022/06/07 00:16:51;;;;;;;0.47;0.47;;;22.30;49.90;21.50;100876.00;;;;5045776;28;20048;-70
2022/06/07 00:19:38;;;;;;;0.60;0.50;;;22.30;50.00;21.50;100877.00;;;;5059707;28;20123;-70
2022/06/07 00:22:24;;;;;;;0.40;0.40;;;22.30;50.00;21.50;100872.00;;;;5058187;28;20044;-70
2022/06/07 00:25:11;;;;;;;1.00;0.40;;;22.30;50.10;21.50;100866.00;;;;5045971;28;20044;-70
2022/06/07 00:27:57;;;;;;;2.55;0.38;;;22.30;50.10;21.50;100865.00;;;;5044677;28;20043;-70
2022/06/07 00:30:43;;;;;;;2.35;0.60;;;22.30;50.20;21.50;100851.00;;;;5055393;28;20498;-70
2022/06/07 00:33:29;;;;;;;0.85;0.43;;;22.30;50.10;21.50;100853.00;;;;5044704;28;20052;-70
2022/06/07 00:36:15;;;;;;;0.70;0.70;;;22.30;50.20;21.50;100844.00;;;;5048852;28;20044;-70
2022/06/07 00:39:03;;;;;;;0.70;0.70;;;22.30;50.10;21.50;100852.00;;;;5054051;28;20091;-70
2022/06/07 00:41:49;;;;;;;2.92;0.82;;;22.30;50.20;21.40;100844.00;;;;5043325;28;20087;-70
2022/06/07 00:44:41;;;;;;;1.83;1.10;;;22.30;50.20;21.40;100837.00;;;;5041955;28;20045;-70
2022/06/07 00:47:29;;;;;;;0.70;0.70;;;22.30;50.20;21.40;100839.00;;;;5042908;28;20044;-70
2022/06/07 00:50:39;;;;;;;1.15;1.05;;;22.30;50.20;21.40;100834.00;;;;5053752;28;20516;-70
2022/06/07 00:53:29;;;;;;;1.30;1.05;;;22.30;50.30;21.40;100843.00;;;;5048592;28;20084;-70
2022/06/07 00:56:15;;;;;;;1.85;0.98;;;22.30;50.30;21.40;100837.00;;;;5059276;28;20047;-70
2022/06/07 00:59:03;;;;;;;1.33;1.20;;;22.30;50.30;21.40;100834.00;;;;5041005;28;20127;-70
2022/06/07 01:01:50;;;;;;;;;;;22.20;50.30;21.40;100831.00;;;;5053880;28;20047;-70
2022/06/07 01:04:36;;;;;;;1.50;1.20;;;22.20;50.20;21.40;100823.00;;;;5038030;28;19924;-70
2022/06/07 01:10:45;;;;;;;1.55;1.27;;;22.30;50.30;21.40;100824.00;;;;5046255;28;20036;-70
2022/06/07 01:13:33;;;;;;;1.50;1.40;;;22.30;50.40;21.40;100822.00;;;;5042864;28;20036;-70
2022/06/07 01:16:20;;;;;;;2.45;1.52;;;22.20;50.30;21.30;100817.00;;;;5035734;28;20409;-71
2022/06/07 01:19:06;;;;;;;1.73;1.50;;;22.30;50.40;21.40;100819.00;;;;5035598;28;20088;-70
2022/06/07 01:21:53;;;;;;;2.70;1.70;;;22.20;50.40;21.40;100820.00;;;;5047798;28;20684;-70
2022/06/07 01:24:39;;;;;;;2.13;1.40;;;22.30;50.50;21.40;100820.00;;;;5048441;28;20040;-71
2022/06/07 01:27:25;;;;;;;2.40;1.90;;;22.20;50.50;21.40;100819.00;;;;5052526;28;20033;-71
2022/06/07 01:30:12;;;;;;;2.30;1.60;;;22.30;50.60;21.40;100814.00;;;;5059128;28;20041;-71
2022/06/07 01:32:58;;;;;;;1.67;1.55;;;22.20;50.60;21.40;100814.00;;;;5042190;28;20044;-71
2022/06/07 01:35:45;;;;;;;1.75;1.63;;;22.20;50.60;21.40;100815.00;;;;5052489;28;20047;-71
2022/06/07 01:38:36;;;;;;;2.95;1.67;;;22.20;50.60;21.40;100809.00;;;;5038909;28;20521;-70
2022/06/07 01:44:35;;;;;;;2.17;1.92;;;22.20;50.60;21.40;100802.00;;;;5043788;28;20061;-70
2022/06/07 01:47:27;;;;;;;2.38;1.65;;;22.30;50.70;21.40;100812.00;;;;5029411;28;20033;-70
2022/06/07 01:50:13;;;;;;;2.40;2.17;;;22.20;50.70;21.40;100808.00;;;;5045589;28;20033;-70
2022/06/07 01:52:59;;;;;;;2.30;2.10;;;22.20;50.60;21.40;100808.00;;;;5047451;28;20029;-71
2022/06/07 01:55:45;;;;;;;2.10;1.90;;;22.30;50.70;21.40;100804.00;;;;5042053;28;20041;-70
2022/06/07 01:58:31;;;;;;;2.50;1.92;;;22.20;50.60;21.40;100803.00;;;;5042638;28;20395;-71
2022/06/07 02:01:17;;;;;;;2.85;1.75;;;22.30;50.70;21.40;100802.00;;;;5057521;28;20036;-70
2022/06/07 02:04:04;;;;;;;2.15;1.95;;;22.30;50.80;21.40;100799.00;;;;5048253;28;20045;-71
2022/06/07 02:06:50;;;;;;;3.13;2.00;;;22.30;50.70;21.40;100795.00;;;;5058672;28;20041;-70
2022/06/07 02:09:36;;;;;;;3.45;2.03;;;22.30;50.80;21.40;100789.00;;;;5050588;28;20423;-71
2022/06/07 02:12:22;;;;;;;2.30;2.10;;;22.30;50.70;21.40;100790.00;;;;5048816;28;20098;-71
2022/06/07 02:15:09;;;;;;;2.33;2.13;;;22.30;50.80;21.40;100789.00;;;;5041958;28;20120;-70
2022/06/07 02:17:56;;;;;;;2.90;2.60;;;22.30;51.40;21.40;100783.00;;;;5065748;28;20041;-70
2022/06/07 02:20:42;;;;;;;3.53;2.40;;;22.30;50.70;21.40;100786.00;;;;5040165;28;20052;-70
2022/06/07 02:23:29;;;;;;;2.75;2.35;;;22.30;50.70;21.40;100781.00;;;;5040504;28;20411;-71
2022/06/07 02:26:30;;;;;;;3.83;3.28;;;22.30;50.70;21.40;100782.00;;;;5057990;28;20037;-70
2022/06/07 02:29:25;;;;;;;4.35;2.95;;;22.30;50.70;21.40;100784.00;;;;5040695;28;20047;-70
2022/06/07 02:32:22;;;;;;;4.38;2.60;;;22.30;50.70;21.40;100784.00;;;;5056565;28;20044;-71
2022/06/07 02:35:08;;;;;;;4.45;2.88;;;22.30;50.80;21.40;100779.00;;;;5024877;28;20444;-70
2022/06/07 02:37:54;;;;;;;3.17;2.70;;;22.30;50.80;21.40;100767.00;;;;5055084;28;20064;-70
2022/06/07 02:40:40;;;;;;;3.15;2.83;;;22.30;50.70;21.40;100769.00;;;;5052982;28;20406;-71
2022/06/07 02:43:26;;;;;;;5.47;2.80;;;22.20;50.80;21.40;100769.00;;;;5043953;28;20530;-70
2022/06/07 02:46:13;;;;;;;4.43;3.33;;;22.30;50.90;21.40;100766.00;;;;5048575;28;20037;-70
2022/06/07 02:48:59;;;;;;;3.70;3.08;;;22.30;50.80;21.40;100763.00;;;;5049180;28;20041;-71
2022/06/07 02:51:45;;;;;;;3.20;2.78;;;22.30;50.80;21.40;100760.00;;;;5051164;28;20043;-70
2022/06/07 02:54:31;;;;;;;3.90;3.50;;;22.30;50.80;21.40;100759.00;;;;5047533;28;20483;-71
2022/06/07 02:57:17;;;;;;;4.50;3.28;;;22.30;50.80;21.40;100757.00;;;;5046857;28;20041;-70
2022/06/07 03:00:05;;;;;;;4.28;3.38;;;22.30;50.90;21.40;100758.00;;;;5048681;28;20037;-70
2022/06/07 03:02:51;;;;;;;3.92;3.30;;;22.30;50.80;21.40;100753.00;;;;5050065;28;20048;-71
2022/06/07 03:05:38;;;;;;;4.20;3.08;;;22.30;50.80;21.40;100754.00;;;;5061221;28;20037;-70
2022/06/07 03:08:24;;;;;;;4.85;3.40;;;22.30;50.80;21.40;100752.00;;;;5042903;28;20451;-71
2022/06/07 03:11:10;;;;;;;4.75;3.25;;;22.30;50.80;21.40;100748.00;;;;5061396;28;20108;-71
2022/06/07 03:13:56;;;;;;;3.80;3.35;;;22.30;50.90;21.40;100749.00;;;;5044049;28;20051;-70
2022/06/07 03:16:42;;;;;;;5.50;3.55;;;22.30;50.90;21.40;100741.00;;;;5046714;28;20406;-71
2022/06/07 03:19:29;;;;;;;5.13;3.70;;;22.30;50.90;21.40;100747.00;;;;5045412;28;20469;-71
2022/06/07 03:22:15;;;;;;;4.75;3.13;;;22.30;50.90;21.40;100745.00;;;;5071859;28;20072;-71
2022/06/07 03:25:05;;;;;;;7.55;3.92;;;22.30;50.90;21.40;100748.00;;;;5038072;28;20087;-71
2022/06/07 03:27:51;;;;;;;3.33;2.97;;;22.30;50.90;21.40;100743.00;;;;5042942;28;20037;-71
2022/06/07 03:30:38;;;;;;;3.85;3.25;;;22.30;50.90;21.40;100749.00;;;;5072793;28;20070;-70
2022/06/07 03:33:24;;;;;;;6.10;3.72;;;22.30;50.90;21.40;100745.00;;;;5063301;28;20044;-71
2022/06/07 03:36:14;;;;;;;3.88;3.45;;;22.30;50.90;21.40;100752.00;;;;5065337;28;20032;-70
2022/06/07 03:39:06;;;;;;;6.72;3.65;;;22.30;50.90;21.40;100744.00;;;;5050791;28;20037;-71
2022/06/07 03:41:52;;;;;;;4.75;3.50;;;22.30;50.90;21.40;100739.00;;;;5051099;28;20374;-71
2022/06/07 03:44:39;;;;;;;4.10;3.42;;;22.30;50.90;21.40;100743.00;;;;5074244;28;20041;-70
2022/06/07 03:47:25;;;;;;;8.60;3.88;;;22.30;50.90;21.40;100747.00;;;;5051061;28;20123;-70
2022/06/07 03:50:11;;;;;;;6.07;4.03;;;22.30;50.90;21.40;100737.00;;;;5070342;28;20037;-70
2022/06/07 03:52:57;;;;;;;5.43;3.90;;;22.30;50.90;21.40;100739.00;;;;5044033;28;20037;-70
2022/06/07 03:55:47;;;;;;;5.85;4.47;;;22.30;50.90;21.40;100740.00;;;;5044566;28;20037;-70
2022/06/07 03:58:34;;;;;;;7.07;4.47;;;22.30;50.90;21.40;100736.00;;;;5046071;28;20040;-71
2022/06/07 04:01:21;;;;;;;9.10;5.03;;;22.30;50.80;21.40;100736.00;;;;5041403;28;20124;-70
2022/06/07 04:04:08;;;;;;;6.65;4.28;;;22.30;50.90;21.40;100740.00;;;;5067971;28;20051;-70
2022/06/07 04:09:58;;;;;;;7.75;4.57;;;22.30;50.90;21.40;100739.00;;;;5046992;28;20041;-70
2022/06/07 04:12:44;;;;;;;6.50;4.80;;;22.30;50.90;21.30;100743.00;;;;5046172;28;20038;-71
2022/06/07 04:15:30;;;;;;;6.45;5.03;;;22.20;50.90;21.40;100748.00;;;;5049674;28;20059;-70
2022/06/07 04:18:17;;;;;;;6.97;4.78;;;22.30;50.90;21.30;100745.00;;;;5059833;28;20028;-70
2022/06/07 04:21:03;;;;;;;7.60;4.90;;;22.20;50.90;21.40;100742.00;;;;5050130;28;20102;-70
2022/06/07 04:23:49;;;;;;;6.28;5.07;;;22.20;50.90;21.30;100740.00;;;;5061359;28;20056;-71
2022/06/07 04:26:35;;;;;;;5.60;4.45;;;22.20;50.90;21.30;100740.00;;;;5064477;28;20062;-70
2022/06/07 04:29:22;;;;;;;6.65;5.20;;;22.20;50.90;21.30;100734.00;;;;5060170;28;20458;-70
2022/06/07 04:32:08;;;;;;;7.07;4.53;;;22.20;50.90;21.30;100745.00;;;;5057176;28;20420;-70
2022/06/07 04:34:54;;;;;;;8.30;5.03;;;22.30;51.00;21.30;100744.00;;;;5041002;28;20068;-70
2022/06/07 04:37:40;;;;;;;7.38;5.35;;;22.20;51.00;21.30;100734.00;;;;5049132;28;20251;-70
2022/06/07 04:40:26;;;;;;;8.38;5.13;;;22.20;50.90;21.30;100746.00;;;;5061335;28;20054;-71
2022/06/07 04:43:12;;;;;;;6.00;4.45;;;22.20;51.00;21.30;100749.00;;;;5072946;28;20045;-70
2022/06/07 04:46:04;;;;;;;6.57;4.65;;;22.20;51.00;21.30;100757.00;;;;5052745;28;20081;-70
2022/06/07 04:48:50;;;;;;;7.07;4.70;;;22.20;51.00;21.30;100750.00;;;;5042897;28;20044;-70
2022/06/07 04:51:38;;;;;;;8.68;5.18;;;22.20;51.00;21.30;100761.00;;;;5038190;28;20029;-70
2022/06/07 04:54:24;;;;;;;6.72;5.15;;;22.20;51.00;21.30;100759.00;;;;5043277;28;20047;-70
2022/06/07 04:57:10;;;;;;;6.28;4.55;;;22.20;51.00;21.30;100764.00;;;;5049231;28;20052;-71
2022/06/07 04:59:56;;;;;;;6.30;4.72;;;22.20;51.00;21.30;100761.00;;;;5064774;28;20544;-70
2022/06/07 05:02:43;;;;;;;5.70;4.40;;;22.20;51.00;21.30;100763.00;;;;5050387;28;20188;-70
2022/06/07 05:05:29;;;;;;;7.55;4.75;;;22.20;51.10;21.30;100763.00;;;;5025959;28;20048;-70
2022/06/07 05:08:17;;;;;;;6.28;4.35;;;22.20;51.10;21.30;100760.00;;;;5040564;28;20116;-70
2022/06/07 05:11:06;;;;;;;;;;;22.20;51.10;21.20;100761.00;;;;5049483;28;20485;-71
2022/06/07 05:13:58;;;;;;;7.07;3.85;;;22.20;51.10;21.20;100760.00;;;;5042016;28;19931;-70
2022/06/07 05:16:44;;;;;;;5.82;4.13;;;22.20;51.00;21.20;100767.00;;;;5045275;28;20539;-71
2022/06/07 05:19:33;;;;;;;7.50;4.20;;;22.20;51.00;21.20;100758.00;;;;5039363;28;20033;-70
2022/06/07 05:22:19;;;;;;;5.38;3.97;;;22.20;51.10;21.20;100751.00;;;;5044633;28;20041;-71
2022/06/07 05:25:05;;;;;;;9.00;3.88;;;22.10;51.10;21.20;100756.00;;;;5040412;28;20497;-71
2022/06/07 05:27:51;;;;;;;7.03;3.67;;;22.10;51.10;21.20;100755.00;;;;5042078;28;20605;-71
2022/06/07 05:30:37;;;;;;;5.95;3.53;;;22.10;51.40;21.20;100764.00;;;;5039432;28;20617;-71
2022/06/07 05:33:23;;;;;;;6.97;4.07;;;22.10;51.20;21.20;100758.00;;;;5040843;28;20033;-70
2022/06/07 05:36:09;;;;;;;5.78;3.45;;;22.10;51.10;21.20;100769.00;;;;5050606;28;20044;-70
2022/06/07 05:38:55;;;;;;;5.10;3.40;;;22.10;51.20;21.20;100773.00;;;;5044198;28;20037;-70
2022/06/07 05:41:41;;;;;;;6.55;3.58;;;22.10;51.30;21.20;100783.00;;;;5046479;28;20041;-71
2022/06/07 05:44:28;;;;;;;5.88;3.65;;;22.10;51.30;21.20;100780.00;;;;5045350;28;20444;-71
2022/06/07 05:47:14;;;;;;;4.50;3.20;;;22.00;51.20;21.20;100786.00;;;;5052883;28;20048;-70
2022/06/07 05:50:01;;;;;;;5.80;3.40;;;22.10;51.30;21.20;100791.00;;;;5043823;28;20040;-70
2022/06/07 05:52:47;;;;;;;6.57;3.10;;;22.10;51.30;21.10;100779.00;;;;5042337;28;20554;-70
2022/06/07 05:55:33;;;;;;;4.70;2.67;;;22.10;51.30;21.10;100784.00;;;;5048671;28;20071;-71
2022/06/07 05:58:19;;;;;;;4.80;3.20;;;22.10;51.30;21.10;100783.00;;;;5037533;28;20077;-71
2022/06/07 06:01:07;;;;;;;4.57;2.72;;;22.10;51.30;21.10;100784.00;;;;5046223;28;20044;-71
2022/06/07 06:03:56;;;;;;;4.93;2.65;;;22.00;51.30;21.10;100779.00;;;;5032788;28;20458;-71
2022/06/07 06:06:42;;;;;;;4.45;2.78;;;22.00;51.30;21.10;100776.00;;;;5043734;28;20041;-70
2022/06/07 06:12:33;;;;;;;6.22;2.95;;;22.00;51.20;21.10;100782.00;;;;5040469;28;20505;-71
2022/06/07 06:15:19;;;;;;;3.60;2.60;;;22.00;51.30;21.10;100784.00;;;;5037284;28;20797;-70
2022/06/07 06:18:08;;;;;;;5.93;2.35;;;22.00;51.20;21.10;100785.00;;;;5025955;28;20040;-71
2022/06/07 06:20:55;;;;;;;4.32;2.40;;;22.00;51.30;21.10;100776.00;;;;5042653;28;20414;-71
2022/06/07 06:23:41;;;;;;;5.40;2.42;;;22.00;51.40;21.10;100778.00;;;;5039713;28;20103;-71
2022/06/07 06:26:27;;;;;;;3.85;2.63;;;22.00;51.40;21.10;100780.00;;;;5044378;28;20461;-71
2022/06/07 06:29:14;;;;;;;4.15;2.58;;;22.00;51.40;21.10;100786.00;;;;5036647;28;20045;-71
2022/06/07 06:32:00;;;;;;;2.72;2.42;;;22.00;51.40;21.10;100782.00;;;;5049650;28;20032;-70
2022/06/07 06:34:46;;;;;;;4.40;2.85;;;22.00;51.50;21.10;100785.00;;;;5041982;28;20047;-71
2022/06/07 06:37:32;;;;;;;4.07;2.45;;;22.00;51.50;21.10;100788.00;;;;5050258;28;20110;-71
2022/06/07 06:40:18;;;;;;;4.20;2.42;;;22.00;51.50;21.10;100782.00;;;;5028200;28;20423;-71
2022/06/07 06:43:05;;;;;;;4.25;3.63;;;22.00;51.50;21.10;100785.00;;;;5039501;28;20048;-71
2022/06/07 06:45:51;;;;;;;4.05;2.63;;;21.90;51.50;21.10;100784.00;;;;5043247;28;20144;-71
2022/06/07 06:48:37;;;;;;;5.18;2.85;;;21.90;51.50;21.10;100778.00;;;;5047779;28;20048;-71
2022/06/07 06:51:25;;;;;;;3.97;2.90;;;22.00;51.60;21.10;100783.00;;;;5048259;28;20495;-71
2022/06/07 06:54:12;;;;;;;5.93;2.92;;;21.90;51.60;21.10;100786.00;;;;5032171;28;20090;-71
2022/06/07 06:56:59;;;;;;;4.82;3.17;;;22.00;51.70;21.10;100784.00;;;;5051516;28;20497;-71
2022/06/07 06:59:45;;;;;;;3.83;2.80;;;22.00;51.60;21.10;100797.00;;;;5046113;28;20498;-71
2022/06/07 07:02:31;;;;;;;3.92;2.90;;;22.00;51.60;21.00;100793.00;;;;5042045;28;20045;-71
2022/06/07 07:05:17;;;;;;;3.33;2.95;;;22.00;51.70;21.00;100792.00;;;;5048298;28;20037;-71
2022/06/07 07:08:03;;;;;;;3.80;2.78;;;22.00;51.70;21.00;100794.00;;;;5044134;28;20493;-71
2022/06/07 07:10:50;;;;;;;5.75;3.05;;;21.90;51.70;21.00;100791.00;;;;5048615;28;20049;-70
2022/06/07 07:13:37;;;;;;;5.47;3.20;;;21.90;51.80;21.00;100794.00;;;;5053571;28;20447;-70
2022/06/07 07:16:35;;;;;;;4.28;3.22;;;21.90;51.80;21.00;100793.00;;;;5059256;28;20164;-71
2022/06/07 07:19:22;;;;;;;6.88;3.75;;;21.90;51.80;21.00;100795.00;;;;5036510;28;20043;-70
2022/06/07 07:22:08;;;;;;;5.10;3.33;;;22.00;51.90;21.00;100797.00;;;;5045437;28;20043;-70
2022/06/07 07:24:54;;;;;;;5.22;3.30;;;21.90;51.90;21.00;100789.00;;;;5014433;28;20041;-71
2022/06/07 07:27:41;;;;;;;4.93;3.97;;;21.90;52.00;21.00;100793.00;;;;5041187;28;20095;-71
2022/06/07 07:30:29;;;;;;;7.65;4.10;;;21.90;52.00;21.00;100785.00;;;;5052545;28;20527;-71
2022/06/07 07:33:15;;;;;;;5.43;3.88;;;21.90;52.00;21.00;100785.00;;;;5044731;28;20051;-71
2022/06/07 07:36:02;;;;;;;8.63;4.10;;;21.90;52.10;21.00;100780.00;;;;5045525;28;20041;-71
2022/06/07 07:38:49;;;;;;;;;;;21.90;52.00;21.00;100785.00;;;;5043466;28;20033;-71
2022/06/07 07:41:36;;;;;;;7.15;4.45;;;21.90;51.90;21.00;100779.00;;;;5029915;28;20244;-70
2022/06/07 07:44:23;;;;;;;;;;;21.90;51.80;20.90;100784.00;;;;5043226;28;20134;-70
2022/06/07 07:47:09;;;;;;;7.78;4.97;;;22.00;51.80;20.90;100778.00;;;;5045803;28;19917;-71
2022/06/07 07:49:55;;;;;;;5.68;4.95;;;22.00;51.70;20.90;100784.00;;;;5044263;28;20478;-71
2022/06/07 07:52:41;;;;;;;6.70;6.00;;;21.90;51.80;20.90;100790.00;;;;5050319;28;20039;-70
2022/06/07 07:55:27;;;;;;;5.72;4.75;;;21.90;51.90;20.90;100788.00;;;;5049799;28;20399;-71
2022/06/07 07:58:13;;;;;;;7.25;4.72;;;21.90;51.90;20.90;100777.00;;;;5042953;28;20476;-70
2022/06/07 08:00:59;;;;;;;5.55;4.30;;;21.80;51.90;20.90;100791.00;;;;5046677;28;20045;-71
2022/06/07 08:03:45;;;;;;;6.07;4.50;;;21.90;52.10;20.90;100790.00;;;;5031825;28;20067;-71
2022/06/07 08:06:32;;;;;;;7.82;4.90;;;21.80;52.00;21.00;100792.00;;;;5051188;28;20037;-71
2022/06/07 08:09:19;;;;;;;7.00;5.07;;;21.80;51.90;20.90;100786.00;;;;5039682;28;20224;-70
2022/06/07 08:12:06;;;;;;;5.65;4.25;;;21.80;51.80;20.90;100794.00;;;;5058833;28;20048;-71
2022/06/07 08:14:52;;;;;;;6.00;4.45;;;21.90;52.60;20.90;100797.00;;;;5041234;28;20045;-70
2022/06/07 08:17:38;;;;;;;6.35;5.30;;;21.80;51.80;20.90;100794.00;;;;5044766;28;20045;-71
2022/06/07 08:20:24;;;;;;;5.13;4.63;;;21.90;51.80;20.90;100798.00;;;;5046831;28;20049;-71
2022/06/07 08:23:12;;;;;;;5.38;4.78;;;21.90;51.90;20.90;100803.00;;;;5046572;28;20047;-70
2022/06/07 08:25:59;;;;;;;;;;;21.90;51.90;20.90;100793.00;;;;5049877;28;20037;-71
2022/06/07 08:28:45;;;;;;;5.95;4.25;;;21.80;51.80;20.90;100803.00;;;;5028742;28;19912;-71
2022/06/07 08:31:32;;;;;;;5.82;4.78;;;21.90;51.70;20.90;100797.00;;;;5047755;28;20041;-71
2022/06/07 08:37:37;;;;;;;4.95;4.15;;;21.90;51.70;20.90;100790.00;;;;5037565;28;20037;-71
2022/06/07 08:40:34;;;;;;;6.55;4.45;;;21.90;51.80;20.90;100788.00;;;;5041513;28;20072;-70
2022/06/07 08:43:22;;;;;;;6.35;4.55;;;21.80;51.70;20.90;100802.00;;;;5052753;28;20120;-71
2022/06/07 08:46:09;;;;;;;;;;;21.90;51.80;20.90;100802.00;;;;5055623;28;20064;-71
2022/06/07 08:48:55;;;;;;;5.30;4.28;;;21.90;51.70;20.90;100789.00;;;;5044737;28;20008;-71
2022/06/07 08:52:23;;;;;;;5.03;4.40;;;21.90;51.50;20.90;100792.00;;;;5044560;28;20637;-71
2022/06/07 08:55:17;;;;;;;7.18;4.88;;;21.90;51.50;20.90;100797.00;;;;5015977;28;20045;-71
2022/06/07 08:58:36;;;;;;;6.05;4.90;;;21.90;51.50;20.90;100803.00;;;;5035400;28;20036;-71
2022/06/07 09:01:36;;;;;;;6.00;4.72;;;21.90;51.50;20.90;100804.00;;;;5022869;28;20080;-71
2022/06/07 09:04:31;;;;;;;6.80;4.82;;;21.90;51.50;20.90;100809.00;;;;5039197;28;20053;-70
2022/06/07 09:07:19;;;;;;;7.82;4.13;;;21.90;51.50;20.90;100805.00;;;;5052685;28;20068;-71
2022/06/07 09:13:24;;;;;;;5.28;4.28;;;21.80;51.50;20.90;100817.00;;;;5048857;28;20040;-71
2022/06/07 09:16:10;;;;;;;4.72;4.13;;;21.90;51.50;20.90;100810.00;;;;5053858;28;20488;-71
2022/06/07 09:18:57;;;;;;;5.25;4.75;;;21.90;51.60;20.90;100810.00;;;;5041886;28;20040;-70
2022/06/07 09:21:44;;;;;;;4.80;4.37;;;21.90;51.50;21.00;100800.00;;;;5055761;28;20041;-71
2022/06/07 09:24:57;;;;;;;6.95;5.15;;;21.90;51.40;20.90;100790.00;;;;5032482;28;20289;-71
2022/06/07 09:27:45;;;;;;;5.55;4.63;;;21.90;51.40;21.00;100794.00;;;;5040118;28;20076;-71
2022/06/07 09:30:37;;;;;;;6.63;5.15;;;21.90;51.30;20.90;100797.00;;;;5042422;28;20045;-71
2022/06/07 09:33:57;;;;;;;6.70;4.72;;;21.90;51.20;20.90;100799.00;;;;5025272;28;20514;-70
2022/06/07 09:36:43;;;;;;;5.47;4.93;;;21.90;51.20;20.90;100808.00;;;;5070547;28;20051;-70
2022/06/07 09:39:36;;;;;;;5.55;4.85;;;21.90;51.20;20.90;100793.00;;;;5046573;28;20055;-71
2022/06/07 09:42:29;;;;;;;7.10;5.10;;;21.90;51.20;20.90;100800.00;;;;5060868;28;20118;-71
2022/06/07 09:45:34;;;;;;;5.53;4.93;;;21.90;51.20;20.90;100803.00;;;;5062014;28;20044;-70
2022/06/07 09:48:39;;;;;;;5.72;4.80;;;21.90;51.20;20.90;100805.00;;;;5074923;28;20033;-70
2022/06/07 09:51:28;;;;;;;6.60;5.32;;;21.90;51.20;20.90;100807.00;;;;5063184;28;20036;-71
2022/06/07 09:54:17;;;;;;;6.50;4.47;;;21.90;51.30;21.00;100806.00;;;;5045736;28;20441;-70
2022/06/07 09:57:25;;;;;;;8.48;5.30;;;21.90;51.30;21.00;100797.00;;;;5062030;28;20204;-71
2022/06/07 10:01:08;;;;;;;6.35;5.05;;;21.90;51.30;21.00;100802.00;;;;5041412;28;20131;-70
2022/06/07 10:04:24;;;;;;;7.60;4.85;;;21.90;51.30;21.00;100805.00;;;;5022772;28;20099;-70
2022/06/07 10:07:26;;;;;;;5.93;5.25;;;21.90;51.30;21.00;100797.00;;;;5068534;28;20040;-70
2022/06/07 10:10:55;;;;;;;7.55;6.40;;;21.90;51.30;21.00;100797.00;;;;5029397;28;20516;-71
2022/06/07 10:14:09;;;;;;;7.00;5.45;;;21.90;51.40;21.00;100816.00;;;;5012671;28;20087;-70
2022/06/07 10:17:36;;;;;;;8.95;6.28;;;22.00;51.50;21.00;100814.00;;;;5041392;28;20049;-70
2022/06/07 10:20:49;;;;;;;8.68;6.10;;;22.00;51.60;21.00;100804.00;;;;5043449;28;20155;-70
2022/06/07 10:24:03;;;;;;;6.82;5.78;;;22.00;51.60;21.00;100815.00;;;;5050229;28;20120;-70
2022/06/07 10:27:13;;;;;;;6.72;5.95;;;21.90;51.60;21.00;100807.00;;;;5033283;28;20127;-70
2022/06/07 10:30:17;;;;;;;8.32;6.38;;;21.90;51.50;21.00;100809.00;;;;5048491;28;20128;-70
2022/06/07 10:33:37;;;;;;;7.80;5.75;;;22.00;51.60;21.00;100799.00;;;;5044051;28;20189;-70
2022/06/07 10:36:48;;;;;;;7.88;6.05;;;21.90;51.70;21.00;100794.00;;;;5047908;28;20509;-70
2022/06/07 10:39:54;;;;;;;6.43;5.82;;;22.00;51.70;21.00;100790.00;;;;5034807;28;20506;-70
2022/06/07 10:42:48;;;;;;;7.30;6.22;;;22.00;51.70;21.00;100797.00;;;;5051402;28;20061;-70
2022/06/07 10:45:37;;;;;;;9.48;6.30;;;22.00;51.80;21.00;100799.00;;;;5037558;28;20037;-70
2022/06/07 10:48:43;;;;;;;7.70;6.25;;;22.00;51.80;21.00;100791.00;;;;5034097;28;20376;-70
2022/06/07 10:54:54;;;;;;;8.65;6.80;;;22.00;51.70;21.00;100795.00;;;;5043222;28;20139;-71
2022/06/07 10:58:04;;;;;;;7.68;6.13;;;22.00;51.70;21.00;100787.00;;;;5043746;28;20040;-70
2022/06/07 11:01:07;;;;;;;5.90;5.30;;;22.00;51.80;21.00;100777.00;;;;5061672;28;20083;-71
2022/06/07 11:10:46;;;;;;;6.38;5.78;;;22.00;51.80;21.00;100788.00;;;;5044962;28;20580;-71
2022/06/07 11:14:16;;;;;;;6.22;5.60;;;22.00;51.80;21.10;100790.00;;;;5065308;28;20041;-71
2022/06/07 11:17:15;;;;;;;7.18;5.60;;;22.00;51.80;21.00;100789.00;;;;5064372;28;20114;-71
2022/06/07 11:20:07;;;;;;;;;;;22.00;51.90;21.00;100788.00;;;;5075568;28;20032;-71
2022/06/07 11:23:06;;;;;;;6.50;5.55;;;22.10;51.80;21.10;100795.00;;;;5061860;28;19916;-71
2022/06/07 11:26:07;;;;;;;6.25;5.63;;;22.10;51.80;21.10;100791.00;;;;5066634;28;20132;-71
2022/06/07 11:28:56;;;;;;;7.88;5.40;;;22.10;51.70;21.10;100788.00;;;;5053625;28;20041;-71
2022/06/07 11:31:43;;;;;;;8.65;5.53;;;22.10;51.60;21.10;100789.00;;;;5040608;28;20497;-71
2022/06/07 11:34:34;;;;;;;;;;;22.10;51.60;21.00;100792.00;;;;5064130;28;20044;-70
2022/06/07 11:37:20;;;;;;;7.47;5.78;;;22.10;51.60;21.10;100782.00;;;;5060285;28;19914;-71
2022/06/07 11:40:29;;;;;;;5.75;5.15;;;22.10;51.60;21.10;100784.00;;;;5050958;28;20467;-71
2022/06/07 11:43:56;;;;;;;6.90;6.10;;;22.10;51.70;21.10;100784.00;;;;5052498;28;20059;-71
2022/06/07 11:47:06;;;;;;;7.25;5.68;;;22.10;51.80;21.10;100782.00;;;;5060305;28;20041;-71
2022/06/07 11:49:52;;;;;;;6.13;5.28;;;22.10;51.90;21.10;100783.00;;;;5047517;28;20165;-71
2022/06/07 11:52:58;;;;;;;6.47;5.57;;;22.10;51.90;21.10;100779.00;;;;5064481;28;20094;-71
2022/06/07 11:55:44;;;;;;;7.10;5.47;;;22.10;51.90;21.20;100774.00;;;;5047779;28;20043;-71
2022/06/07 11:59:01;;;;;;;7.50;5.70;;;22.20;52.00;21.20;100784.00;;;;5037159;28;20052;-71
2022/06/07 12:01:53;;;;;;;7.75;6.25;;;22.20;52.00;21.20;100780.00;;;;5060155;28;20097;-71
2022/06/07 12:04:45;;;;;;;8.50;6.28;;;22.20;52.00;21.20;100784.00;;;;5055105;28;20099;-71
2022/06/07 12:07:51;;;;;;;7.72;5.75;;;22.20;52.00;21.20;100782.00;;;;5064482;28;20028;-71
2022/06/07 12:10:40;;;;;;;5.95;5.13;;;22.20;52.10;21.20;100779.00;;;;5042183;28;20149;-71
2022/06/07 12:13:54;;;;;;;6.43;5.63;;;22.20;52.00;21.20;100787.00;;;;5046161;28;20390;-70
2022/06/07 12:16:42;;;;;;;6.97;5.70;;;22.20;52.00;21.20;100785.00;;;;5050287;28;20579;-70
2022/06/07 12:19:31;;;;;;;6.97;5.68;;;22.20;51.90;21.20;100789.00;;;;5060012;28;20497;-70
2022/06/07 12:22:23;;;;;;;6.93;5.72;;;22.20;51.90;21.20;100781.00;;;;5047582;28;20044;-71
2022/06/07 12:25:19;;;;;;;5.90;5.20;;;22.30;52.00;21.30;100782.00;;;;5074659;28;20489;-71
2022/06/07 12:28:17;;;;;;;7.28;6.22;;;22.30;52.60;21.30;100772.00;;;;5042642;28;20036;-71
2022/06/07 12:31:33;;;;;;;8.30;5.80;;;22.30;51.80;21.30;100777.00;;;;5046136;28;20474;-70
2022/06/07 12:34:36;;;;;;;6.85;5.28;;;22.30;51.80;21.30;100774.00;;;;5050932;28;20040;-71
2022/06/07 12:37:26;;;;;;;6.70;5.35;;;22.30;51.70;21.30;100769.00;;;;5043453;28;20037;-70
2022/06/07 12:40:33;;;;;;;7.30;5.10;;;22.30;51.70;21.30;100773.00;;;;5075545;28;20052;-71
2022/06/07 12:43:21;;;;;;;6.00;5.30;;;22.30;51.70;21.30;100760.00;;;;5048286;28;20135;-70
2022/06/07 12:46:23;;;;;;;7.18;5.68;;;22.30;51.60;21.30;100774.00;;;;5056924;28;20436;-71
2022/06/07 12:49:23;;;;;;;6.85;5.72;;;22.30;51.70;21.30;100763.00;;;;5048933;28;20064;-71
2022/06/07 12:52:21;;;;;;;6.45;5.50;;;22.30;51.70;21.30;100768.00;;;;5051143;28;20049;-71
2022/06/07 12:55:13;;;;;;;7.15;5.85;;;22.30;51.70;21.30;100764.00;;;;5051112;28;20044;-70
2022/06/07 12:58:03;;;;;;;9.05;4.57;;;22.30;51.70;21.30;100765.00;;;;5068160;28;20154;-71
2022/06/07 13:00:49;;;;;;;6.30;5.55;;;22.40;51.70;21.40;100769.00;;;;5030905;28;20144;-70
2022/06/07 13:03:36;;;;;;;5.95;5.15;;;22.60;51.80;21.40;100755.00;;;;5055099;28;20045;-70